createdAt,value
2018-07-17T00:00:27.705Z,1007.11
2018-07-17T00:01:03.353Z,1007.11
2018-07-17T00:01:38.482Z,1007.11
2018-07-17T00:02:13.824Z,1007.10
2018-07-17T00:02:48.846Z,1007.12
2018-07-17T00:03:24.153Z,1007.09
2018-07-17T00:03:59.478Z,1007.09
2018-07-17T00:04:34.869Z,1007.10
2018-07-17T00:05:10.329Z,1007.05
2018-07-17T00:05:46.124Z,1007.08
2018-07-17T00:06:21.575Z,1007.10
2018-07-17T00:06:56.810Z,1007.12
2018-07-17T00:07:32.092Z,1007.11
2018-07-17T00:08:07.332Z,1007.10
2018-07-17T00:08:42.759Z,1007.11
2018-07-17T00:09:18.079Z,1007.08
2018-07-17T00:09:53.593Z,1007.11
2018-07-17T00:10:29.027Z,1007.12
2018-07-17T00:11:04.360Z,1007.08
2018-07-17T00:11:39.766Z,1007.10
2018-07-17T00:12:15.296Z,1007.07
2018-07-17T00:12:50.641Z,1007.05
2018-07-17T00:13:25.770Z,1007.07
2018-07-17T00:14:00.883Z,1007.06
2018-07-17T00:14:36.210Z,1007.03
2018-07-17T00:15:11.669Z,1007.02
2018-07-17T00:15:47.003Z,1007.03
2018-07-17T00:16:22.112Z,1007.02
2018-07-17T00:16:57.519Z,1007.01
2018-07-17T00:17:33.096Z,1007.04
2018-07-17T00:18:08.317Z,1007.03
2018-07-17T00:18:43.830Z,1007.05
2018-07-17T00:19:19.285Z,1007.04
2018-07-17T00:19:54.886Z,1007.09
2018-07-17T00:20:30.826Z,1007.08
2018-07-17T00:21:06.143Z,1007.07
2018-07-17T00:21:41.752Z,1007.06
2018-07-17T00:22:17.067Z,1007.07
2018-07-17T00:22:52.548Z,1007.05
2018-07-17T00:23:28.183Z,1007.07
2018-07-17T00:24:03.405Z,1007.03
2018-07-17T00:24:40.142Z,1007.08
2018-07-17T00:25:16.074Z,1007.05
2018-07-17T00:25:51.757Z,1007.02
2018-07-17T00:26:27.390Z,1007.04
2018-07-17T00:27:02.504Z,1007.03
2018-07-17T00:27:37.930Z,1007.00
2018-07-17T00:28:13.343Z,1007.06
2018-07-17T00:28:48.844Z,1007.04
2018-07-17T00:29:24.066Z,1007.04
2018-07-17T00:29:58.970Z,1007.03
2018-07-17T00:30:34.193Z,1007.06
2018-07-17T00:31:09.576Z,1007.04
2018-07-17T00:31:45.082Z,1007.06
2018-07-17T00:32:20.444Z,1007.07
2018-07-17T00:32:55.737Z,1007.07
2018-07-17T00:33:30.968Z,1007.05
2018-07-17T00:34:06.355Z,1007.05
2018-07-17T00:34:41.790Z,1007.05
2018-07-17T00:35:16.921Z,1007.07
2018-07-17T00:35:52.215Z,1007.06
2018-07-17T00:36:27.660Z,1007.03
2018-07-17T00:37:03.168Z,1007.01
2018-07-17T00:37:38.379Z,1007.03
2018-07-17T00:38:14.137Z,1007.04
2018-07-17T00:38:49.829Z,1007.01
2018-07-17T00:39:25.088Z,1006.99
2018-07-17T00:40:00.823Z,1006.99
2018-07-17T00:40:36.437Z,1006.98
2018-07-17T00:41:12.056Z,1006.97
2018-07-17T00:41:47.454Z,1006.98
2018-07-17T00:42:23.069Z,1006.94
2018-07-17T00:42:58.366Z,1006.98
2018-07-17T00:43:33.493Z,1006.98
2018-07-17T00:44:08.812Z,1006.99
2018-07-17T00:44:44.534Z,1006.98
2018-07-17T00:45:19.873Z,1006.96
2018-07-17T00:45:55.163Z,1006.98
2018-07-17T00:46:30.673Z,1006.98
2018-07-17T00:47:06.005Z,1006.99
2018-07-17T00:47:41.223Z,1006.99
2018-07-17T00:48:16.846Z,1006.94
2018-07-17T00:48:52.228Z,1006.97
2018-07-17T00:49:27.558Z,1006.95
2018-07-17T00:50:02.868Z,1006.97
2018-07-17T00:50:38.209Z,1006.93
2018-07-17T00:51:13.738Z,1006.94
2018-07-17T00:51:48.933Z,1006.90
2018-07-17T00:52:24.374Z,1006.90
2018-07-17T00:52:59.573Z,1006.96
2018-07-17T00:53:34.988Z,1006.92
2018-07-17T00:54:10.136Z,1006.92
2018-07-17T00:54:45.490Z,1006.95
2018-07-17T00:55:21.079Z,1006.92
2018-07-17T00:55:56.297Z,1006.92
2018-07-17T00:56:31.744Z,1006.89
2018-07-17T00:57:07.088Z,1006.88
2018-07-17T00:57:42.546Z,1006.92
2018-07-17T00:58:18.673Z,1006.89
2018-07-17T00:58:53.832Z,1006.84
2018-07-17T00:59:28.990Z,1006.84
2018-07-17T01:00:04.451Z,1006.84
2018-07-17T01:00:41.008Z,1006.84
2018-07-17T01:01:16.257Z,1006.88
2018-07-17T01:01:51.581Z,1006.85
2018-07-17T01:02:26.938Z,1006.84
2018-07-17T01:03:02.380Z,1006.86
2018-07-17T01:03:38.139Z,1006.83
2018-07-17T01:04:13.881Z,1006.85
2018-07-17T01:04:49.570Z,1006.84
2018-07-17T01:05:25.212Z,1006.82
2018-07-17T01:06:00.437Z,1006.83
2018-07-17T01:06:35.886Z,1006.84
2018-07-17T01:07:11.116Z,1006.83
2018-07-17T01:07:46.566Z,1006.82
2018-07-17T01:08:22.289Z,1006.78
2018-07-17T01:08:57.540Z,1006.81
2018-07-17T01:09:32.996Z,1006.79
2018-07-17T01:10:08.340Z,1006.77
2018-07-17T01:10:44.374Z,1006.75
2018-07-17T01:11:19.798Z,1006.76
2018-07-17T01:11:55.238Z,1006.72
2018-07-17T01:12:30.508Z,1006.71
2018-07-17T01:13:05.733Z,1006.75
2018-07-17T01:13:41.064Z,1006.76
2018-07-17T01:14:16.386Z,1006.73
2018-07-17T01:14:52.141Z,1006.76
2018-07-17T01:15:27.467Z,1006.77
2018-07-17T01:16:02.909Z,1006.77
2018-07-17T01:16:38.498Z,1006.74
2018-07-17T01:17:14.029Z,1006.79
2018-07-17T01:17:49.378Z,1006.74
2018-07-17T01:18:24.641Z,1006.75
2018-07-17T01:18:59.862Z,1006.77
2018-07-17T01:19:35.447Z,1006.75
2018-07-17T01:20:11.132Z,1006.75
2018-07-17T01:20:47.493Z,1006.74
2018-07-17T01:21:23.235Z,1006.74
2018-07-17T01:21:58.543Z,1006.74
2018-07-17T01:22:33.946Z,1006.72
2018-07-17T01:23:09.085Z,1006.71
2018-07-17T01:23:44.627Z,1006.74
2018-07-17T01:24:19.864Z,1006.70
2018-07-17T01:24:55.233Z,1006.75
2018-07-17T01:25:30.911Z,1006.70
2018-07-17T01:26:06.347Z,1006.78
2018-07-17T01:26:41.896Z,1006.74
2018-07-17T01:27:17.389Z,1006.76
2018-07-17T01:27:52.815Z,1006.74
2018-07-17T01:28:28.132Z,1006.76
2018-07-17T01:29:03.927Z,1006.74
2018-07-17T01:29:39.193Z,1006.76
2018-07-17T01:30:14.638Z,1006.74
2018-07-17T01:30:49.948Z,1006.77
2018-07-17T01:31:25.374Z,1006.74
2018-07-17T01:32:01.061Z,1006.72
2018-07-17T01:32:36.500Z,1006.77
2018-07-17T01:33:11.990Z,1006.73
2018-07-17T01:33:47.509Z,1006.76
2018-07-17T01:34:22.716Z,1006.71
2018-07-17T01:34:58.066Z,1006.71
2018-07-17T01:35:33.495Z,1006.68
2018-07-17T01:36:08.588Z,1006.70
2018-07-17T01:36:44.198Z,1006.72
2018-07-17T01:37:19.892Z,1006.70
2018-07-17T01:37:55.229Z,1006.66
2018-07-17T01:38:30.365Z,1006.67
2018-07-17T01:39:05.964Z,1006.67
2018-07-17T01:39:41.416Z,1006.67
2018-07-17T01:40:16.727Z,1006.66
2018-07-17T01:40:51.951Z,1006.64
2018-07-17T01:41:27.684Z,1006.62
2018-07-17T01:42:02.857Z,1006.62
2018-07-17T01:42:38.069Z,1006.62
2018-07-17T01:43:13.362Z,1006.63
2018-07-17T01:43:48.480Z,1006.60
2018-07-17T01:44:24.098Z,1006.59
2018-07-17T01:44:59.611Z,1006.55
2018-07-17T01:45:35.135Z,1006.57
2018-07-17T01:46:10.382Z,1006.56
2018-07-17T01:46:47.029Z,1006.59
2018-07-17T01:47:22.452Z,1006.56
2018-07-17T01:47:57.824Z,1006.54
2018-07-17T01:48:33.178Z,1006.56
2018-07-17T01:49:08.761Z,1006.56
2018-07-17T01:49:44.071Z,1006.55
2018-07-17T01:50:19.504Z,1006.55
2018-07-17T01:50:55.229Z,1006.53
2018-07-17T01:51:30.900Z,1006.57
2018-07-17T01:52:06.032Z,1006.52
2018-07-17T01:52:41.451Z,1006.52
2018-07-17T01:53:16.772Z,1006.53
2018-07-17T01:53:52.968Z,1006.56
2018-07-17T01:54:28.155Z,1006.52
2018-07-17T01:55:03.998Z,1006.54
2018-07-17T01:55:39.517Z,1006.52
2018-07-17T01:56:15.044Z,1006.52
2018-07-17T01:56:50.612Z,1006.51
2018-07-17T01:57:25.863Z,1006.56
2018-07-17T01:58:01.454Z,1006.56
2018-07-17T01:58:38.350Z,1006.56
2018-07-17T01:59:13.638Z,1006.54
2018-07-17T01:59:49.282Z,1006.54
2018-07-17T02:00:25.759Z,1006.54
2018-07-17T02:01:02.862Z,1006.57
2018-07-17T02:01:39.461Z,1006.53
2018-07-17T02:02:15.035Z,1006.55
2018-07-17T02:02:51.026Z,1006.54
2018-07-17T02:03:26.442Z,1006.56
2018-07-17T02:04:02.600Z,1006.56
2018-07-17T02:04:37.884Z,1006.52
2018-07-17T02:05:13.431Z,1006.52
2018-07-17T02:05:49.801Z,1006.52
2018-07-17T02:06:27.151Z,1006.50
2018-07-17T02:07:04.234Z,1006.48
2018-07-17T02:07:39.403Z,1006.51
2018-07-17T02:08:14.619Z,1006.48
2018-07-17T02:08:50.943Z,1006.51
2018-07-17T02:09:26.908Z,1006.48
2018-07-17T02:10:03.222Z,1006.49
2018-07-17T02:10:38.916Z,1006.48
2018-07-17T02:11:17.486Z,1006.47
2018-07-17T02:11:52.731Z,1006.47
2018-07-17T02:12:28.703Z,1006.48
2018-07-17T02:13:04.512Z,1006.50
2018-07-17T02:13:39.641Z,1006.46
2018-07-17T02:14:15.285Z,1006.49
2018-07-17T02:14:50.641Z,1006.50
2018-07-17T02:15:27.063Z,1006.46
2018-07-17T02:16:02.638Z,1006.50
2018-07-17T02:16:38.834Z,1006.48
2018-07-17T02:17:15.142Z,1006.49
2018-07-17T02:17:50.745Z,1006.49
2018-07-17T02:18:26.177Z,1006.48
2018-07-17T02:19:01.542Z,1006.45
2018-07-17T02:19:37.544Z,1006.49
2018-07-17T02:20:13.032Z,1006.47
2018-07-17T02:20:49.724Z,1006.46
2018-07-17T02:21:25.220Z,1006.46
2018-07-17T02:22:00.427Z,1006.49
2018-07-17T02:22:36.833Z,1006.48
2018-07-17T02:23:12.800Z,1006.52
2018-07-17T02:23:48.970Z,1006.49
2018-07-17T02:24:25.018Z,1006.49
2018-07-17T02:25:00.544Z,1006.51
2018-07-17T02:25:36.953Z,1006.48
2018-07-17T02:26:12.345Z,1006.50
2018-07-17T02:26:48.246Z,1006.51
2018-07-17T02:27:23.659Z,1006.47
2018-07-17T02:27:59.292Z,1006.50
2018-07-17T02:28:34.311Z,1006.48
2018-07-17T02:29:09.805Z,1006.50
2018-07-17T02:29:45.238Z,1006.46
2018-07-17T02:30:21.257Z,1006.48
2018-07-17T02:30:57.670Z,1006.49
2018-07-17T02:31:33.078Z,1006.50
2018-07-17T02:32:08.420Z,1006.51
2018-07-17T02:32:44.732Z,1006.51
2018-07-17T02:33:21.919Z,1006.51
2018-07-17T02:33:57.630Z,1006.53
2018-07-17T02:34:33.113Z,1006.54
2018-07-17T02:35:08.649Z,1006.50
2018-07-17T02:35:45.455Z,1006.52
2018-07-17T02:36:21.239Z,1006.58
2018-07-17T02:36:57.204Z,1006.54
2018-07-17T02:37:33.002Z,1006.58
2018-07-17T02:38:08.519Z,1006.57
2018-07-17T02:38:43.749Z,1006.57
2018-07-17T02:39:19.160Z,1006.59
2018-07-17T02:39:54.603Z,1006.57
2018-07-17T02:40:31.701Z,1006.57
2018-07-17T02:41:06.930Z,1006.55
2018-07-17T02:41:42.052Z,1006.54
2018-07-17T02:42:18.282Z,1006.58
2018-07-17T02:42:54.285Z,1006.56
2018-07-17T02:43:30.153Z,1006.54
2018-07-17T02:44:05.738Z,1006.55
2018-07-17T02:44:41.065Z,1006.58
2018-07-17T02:45:16.477Z,1006.55
2018-07-17T02:45:55.889Z,1006.51
2018-07-17T02:46:31.524Z,1006.55
2018-07-17T02:47:06.883Z,1006.55
2018-07-17T02:47:43.398Z,1006.56
2018-07-17T02:48:20.089Z,1006.54
2018-07-17T02:48:55.326Z,1006.56
2018-07-17T02:49:31.138Z,1006.52
2018-07-17T02:50:06.900Z,1006.52
2018-07-17T02:50:44.410Z,1006.50
2018-07-17T02:51:19.819Z,1006.52
2018-07-17T02:51:55.384Z,1006.51
2018-07-17T02:52:30.679Z,1006.50
2018-07-17T02:53:06.791Z,1006.50
2018-07-17T02:53:47.191Z,1006.46
2018-07-17T02:54:23.685Z,1006.49
2018-07-17T02:54:58.920Z,1006.49
2018-07-17T02:55:34.251Z,1006.49
2018-07-17T02:56:11.229Z,1006.49
2018-07-17T02:56:46.557Z,1006.51
2018-07-17T02:57:21.755Z,1006.53
2018-07-17T02:57:57.295Z,1006.51
2018-07-17T02:58:32.495Z,1006.55
2018-07-17T02:59:07.736Z,1006.56
2018-07-17T02:59:43.538Z,1006.57
2018-07-17T03:00:20.459Z,1006.57
2018-07-17T03:00:57.169Z,1006.58
2018-07-17T03:01:32.469Z,1006.59
2018-07-17T03:02:07.857Z,1006.61
2018-07-17T03:02:43.462Z,1006.58
2018-07-17T03:03:19.081Z,1006.60
2018-07-17T03:03:54.535Z,1006.60
2018-07-17T03:04:29.655Z,1006.60
2018-07-17T03:05:06.758Z,1006.60
2018-07-17T03:05:44.315Z,1006.60
2018-07-17T03:06:19.580Z,1006.59
2018-07-17T03:06:55.518Z,1006.61
2018-07-17T03:07:32.104Z,1006.59
2018-07-17T03:08:07.223Z,1006.61
2018-07-17T03:08:43.207Z,1006.59
2018-07-17T03:09:18.714Z,1006.60
2018-07-17T03:09:54.280Z,1006.59
2018-07-17T03:10:30.595Z,1006.61
2018-07-17T03:11:06.144Z,1006.63
2018-07-17T03:11:42.132Z,1006.62
2018-07-17T03:12:17.449Z,1006.61
2018-07-17T03:12:53.412Z,1006.58
2018-07-17T03:13:28.649Z,1006.63
2018-07-17T03:14:04.896Z,1006.62
2018-07-17T03:14:40.691Z,1006.61
2018-07-17T03:15:16.132Z,1006.62
2018-07-17T03:15:51.924Z,1006.63
2018-07-17T03:16:26.917Z,1006.64
2018-07-17T03:17:02.298Z,1006.63
2018-07-17T03:17:37.896Z,1006.63
2018-07-17T03:18:13.267Z,1006.63
2018-07-17T03:18:49.005Z,1006.60
2018-07-17T03:19:25.309Z,1006.59
2018-07-17T03:20:01.735Z,1006.63
2018-07-17T03:20:37.715Z,1006.59
2018-07-17T03:21:13.135Z,1006.59
2018-07-17T03:21:50.353Z,1006.59
2018-07-17T03:22:25.840Z,1006.58
2018-07-17T03:23:01.289Z,1006.59
2018-07-17T03:23:36.691Z,1006.60
2018-07-17T03:24:12.212Z,1006.57
2018-07-17T03:24:48.016Z,1006.58
2018-07-17T03:25:23.545Z,1006.58
2018-07-17T03:25:59.571Z,1006.59
2018-07-17T03:26:35.085Z,1006.56
2018-07-17T03:27:10.432Z,1006.57
2018-07-17T03:27:47.946Z,1006.59
2018-07-17T03:28:23.070Z,1006.56
2018-07-17T03:28:59.290Z,1006.58
2018-07-17T03:29:35.263Z,1006.55
2018-07-17T03:30:10.710Z,1006.56
2018-07-17T03:30:46.843Z,1006.56
2018-07-17T03:31:22.889Z,1006.57
2018-07-17T03:31:59.900Z,1006.57
2018-07-17T03:32:36.101Z,1006.58
2018-07-17T03:33:11.326Z,1006.58
2018-07-17T03:33:47.661Z,1006.60
2018-07-17T03:34:23.070Z,1006.59
2018-07-17T03:34:58.322Z,1006.60
2018-07-17T03:35:34.023Z,1006.61
2018-07-17T03:36:09.384Z,1006.62
2018-07-17T03:36:45.629Z,1006.62
2018-07-17T03:37:20.826Z,1006.61
2018-07-17T03:37:57.829Z,1006.58
2018-07-17T03:38:33.337Z,1006.59
2018-07-17T03:39:09.320Z,1006.59
2018-07-17T03:39:46.392Z,1006.62
2018-07-17T03:40:22.035Z,1006.62
2018-07-17T03:40:57.931Z,1006.60
2018-07-17T03:41:33.136Z,1006.59
2018-07-17T03:42:10.398Z,1006.62
2018-07-17T03:42:45.852Z,1006.63
2018-07-17T03:43:21.642Z,1006.58
2018-07-17T03:43:58.328Z,1006.63
2018-07-17T03:44:33.449Z,1006.61
2018-07-17T03:45:10.146Z,1006.62
2018-07-17T03:45:45.883Z,1006.61
2018-07-17T03:46:22.018Z,1006.63
2018-07-17T03:46:57.994Z,1006.62
2018-07-17T03:47:33.380Z,1006.62
2018-07-17T03:48:08.811Z,1006.61
2018-07-17T03:48:44.321Z,1006.66
2018-07-17T03:49:20.113Z,1006.64
2018-07-17T03:49:56.428Z,1006.65
2018-07-17T03:50:33.305Z,1006.68
2018-07-17T03:51:08.561Z,1006.64
2018-07-17T03:51:44.570Z,1006.69
2018-07-17T03:52:19.752Z,1006.66
2018-07-17T03:52:55.269Z,1006.69
2018-07-17T03:53:31.474Z,1006.70
2018-07-17T03:54:07.200Z,1006.69
2018-07-17T03:54:43.820Z,1006.71
2018-07-17T03:55:19.647Z,1006.72
2018-07-17T03:55:55.282Z,1006.73
2018-07-17T03:56:34.112Z,1006.71
2018-07-17T03:57:09.351Z,1006.71
2018-07-17T03:57:45.011Z,1006.70
2018-07-17T03:58:20.416Z,1006.71
2018-07-17T03:58:56.823Z,1006.70
2018-07-17T03:59:32.242Z,1006.71
2018-07-17T04:00:07.596Z,1006.72
2018-07-17T04:00:45.779Z,1006.70
2018-07-17T04:01:22.335Z,1006.70
2018-07-17T04:01:58.719Z,1006.69
2018-07-17T04:02:34.074Z,1006.67
2018-07-17T04:03:09.673Z,1006.68
2018-07-17T04:03:45.000Z,1006.69
2018-07-17T04:04:21.165Z,1006.71
2018-07-17T04:04:57.641Z,1006.69
2018-07-17T04:05:33.089Z,1006.72
2018-07-17T04:06:08.243Z,1006.67
2018-07-17T04:06:43.396Z,1006.71
2018-07-17T04:07:18.922Z,1006.67
2018-07-17T04:07:54.841Z,1006.67
2018-07-17T04:08:30.548Z,1006.66
2018-07-17T04:09:06.734Z,1006.60
2018-07-17T04:09:42.036Z,1006.64
2018-07-17T04:10:17.205Z,1006.62
2018-07-17T04:10:53.015Z,1006.62
2018-07-17T04:11:28.824Z,1006.63
2018-07-17T04:12:04.152Z,1006.60
2018-07-17T04:12:41.632Z,1006.63
2018-07-17T04:13:17.181Z,1006.66
2018-07-17T04:13:53.959Z,1006.67
2018-07-17T04:14:31.307Z,1006.65
2018-07-17T04:15:08.366Z,1006.63
2018-07-17T04:15:44.178Z,1006.67
2018-07-17T04:16:19.602Z,1006.63
2018-07-17T04:16:55.044Z,1006.64
2018-07-17T04:17:31.284Z,1006.63
2018-07-17T04:18:07.377Z,1006.64
2018-07-17T04:18:44.513Z,1006.65
2018-07-17T04:19:20.619Z,1006.63
2018-07-17T04:19:56.074Z,1006.66
2018-07-17T04:20:32.222Z,1006.66
2018-07-17T04:21:07.560Z,1006.66
2018-07-17T04:21:42.966Z,1006.64
2018-07-17T04:22:18.208Z,1006.66
2018-07-17T04:22:53.446Z,1006.70
2018-07-17T04:23:28.846Z,1006.68
2018-07-17T04:24:04.694Z,1006.71
2018-07-17T04:24:40.121Z,1006.70
2018-07-17T04:25:16.031Z,1006.68
2018-07-17T04:25:53.939Z,1006.71
2018-07-17T04:26:29.844Z,1006.65
2018-07-17T04:27:05.867Z,1006.70
2018-07-17T04:27:41.995Z,1006.73
2018-07-17T04:28:17.684Z,1006.69
2018-07-17T04:28:53.090Z,1006.68
2018-07-17T04:29:28.462Z,1006.66
2018-07-17T04:30:04.963Z,1006.67
2018-07-17T04:30:42.679Z,1006.69
2018-07-17T04:31:19.341Z,1006.70
2018-07-17T04:31:56.613Z,1006.71
2018-07-17T04:32:32.568Z,1006.72
2018-07-17T04:33:07.995Z,1006.70
2018-07-17T04:33:44.788Z,1006.71
2018-07-17T04:34:20.727Z,1006.73
2018-07-17T04:34:57.070Z,1006.74
2018-07-17T04:35:33.441Z,1006.72
2018-07-17T04:36:09.238Z,1006.77
2018-07-17T04:36:45.623Z,1006.75
2018-07-17T04:37:21.541Z,1006.80
2018-07-17T04:37:57.489Z,1006.77
2018-07-17T04:38:32.776Z,1006.76
2018-07-17T04:39:09.626Z,1006.79
2018-07-17T04:39:45.284Z,1006.75
2018-07-17T04:40:20.964Z,1006.81
2018-07-17T04:40:56.865Z,1006.79
2018-07-17T04:41:32.660Z,1006.80
2018-07-17T04:42:08.390Z,1006.80
2018-07-17T04:42:43.875Z,1006.78
2018-07-17T04:43:19.441Z,1006.75
2018-07-17T04:43:54.767Z,1006.79
2018-07-17T04:44:30.550Z,1006.78
2018-07-17T04:45:06.296Z,1006.74
2018-07-17T04:45:41.611Z,1006.76
2018-07-17T04:46:16.967Z,1006.76
2018-07-17T04:46:52.662Z,1006.77
2018-07-17T04:47:29.578Z,1006.77
2018-07-17T04:48:06.020Z,1006.76
2018-07-17T04:48:42.685Z,1006.76
2018-07-17T04:49:19.225Z,1006.72
2018-07-17T04:49:55.064Z,1006.76
2018-07-17T04:50:30.781Z,1006.76
2018-07-17T04:51:06.796Z,1006.76
2018-07-17T04:51:42.837Z,1006.80
2018-07-17T04:52:19.345Z,1006.80
2018-07-17T04:52:55.010Z,1006.78
2018-07-17T04:53:30.701Z,1006.84
2018-07-17T04:54:06.004Z,1006.82
2018-07-17T04:54:42.030Z,1006.80
2018-07-17T04:55:17.397Z,1006.81
2018-07-17T04:55:53.494Z,1006.84
2018-07-17T04:56:29.180Z,1006.82
2018-07-17T04:57:04.196Z,1006.82
2018-07-17T04:57:39.750Z,1006.85
2018-07-17T04:58:15.913Z,1006.83
2018-07-17T04:58:52.724Z,1006.90
2018-07-17T04:59:28.721Z,1006.88
2018-07-17T05:00:04.220Z,1006.89
2018-07-17T05:00:39.688Z,1006.87
2018-07-17T05:01:15.205Z,1006.88
2018-07-17T05:01:50.537Z,1006.93
2018-07-17T05:02:25.947Z,1006.92
2018-07-17T05:03:01.740Z,1006.94
2018-07-17T05:03:37.561Z,1006.93
2018-07-17T05:04:12.810Z,1006.93
2018-07-17T05:04:48.751Z,1006.92
2018-07-17T05:05:24.104Z,1006.97
2018-07-17T05:05:59.477Z,1006.97
2018-07-17T05:06:34.730Z,1006.96
2018-07-17T05:07:10.154Z,1006.96
2018-07-17T05:07:45.683Z,1006.93
2018-07-17T05:08:22.001Z,1006.97
2018-07-17T05:08:57.720Z,1006.97
2018-07-17T05:09:32.943Z,1006.95
2018-07-17T05:10:09.252Z,1006.94
2018-07-17T05:10:45.196Z,1006.98
2018-07-17T05:11:20.666Z,1006.98
2018-07-17T05:11:56.869Z,1006.96
2018-07-17T05:12:32.204Z,1006.96
2018-07-17T05:13:08.196Z,1006.97
2018-07-17T05:13:44.056Z,1006.97
2018-07-17T05:14:19.180Z,1006.96
2018-07-17T05:14:55.088Z,1006.94
2018-07-17T05:15:30.537Z,1006.95
2018-07-17T05:16:07.130Z,1006.98
2018-07-17T05:16:42.248Z,1006.97
2018-07-17T05:17:18.621Z,1006.93
2018-07-17T05:17:54.216Z,1006.97
2018-07-17T05:18:29.800Z,1006.98
2018-07-17T05:19:05.440Z,1006.96
2018-07-17T05:19:40.838Z,1006.99
2018-07-17T05:20:16.503Z,1006.98
2018-07-17T05:20:52.824Z,1006.97
2018-07-17T05:21:29.473Z,1007.00
2018-07-17T05:22:06.384Z,1007.00
2018-07-17T05:22:42.063Z,1006.98
2018-07-17T05:23:18.187Z,1007.01
2018-07-17T05:23:54.749Z,1007.00
2018-07-17T05:24:30.948Z,1006.99
2018-07-17T05:25:06.601Z,1007.04
2018-07-17T05:25:46.746Z,1007.01
2018-07-17T05:26:23.307Z,1006.99
2018-07-17T05:26:59.091Z,1006.97
2018-07-17T05:27:34.511Z,1006.96
2018-07-17T05:28:09.820Z,1006.98
2018-07-17T05:28:45.362Z,1006.94
2018-07-17T05:29:23.091Z,1006.96
2018-07-17T05:29:58.923Z,1006.93
2018-07-17T05:30:34.583Z,1006.96
2018-07-17T05:31:09.994Z,1006.92
2018-07-17T05:31:45.389Z,1006.93
2018-07-17T05:32:21.013Z,1006.92
2018-07-17T05:32:57.023Z,1006.91
2018-07-17T05:33:32.370Z,1006.90
2018-07-17T05:34:08.239Z,1006.95
2018-07-17T05:34:45.900Z,1006.92
2018-07-17T05:35:21.836Z,1006.90
2018-07-17T05:35:58.606Z,1006.93
2018-07-17T05:36:34.029Z,1006.87
2018-07-17T05:37:09.397Z,1006.91
2018-07-17T05:37:45.005Z,1006.93
2018-07-17T05:38:20.147Z,1006.91
2018-07-17T05:38:56.077Z,1006.89
2018-07-17T05:39:31.705Z,1006.93
2018-07-17T05:40:06.938Z,1006.92
2018-07-17T05:40:43.164Z,1006.95
2018-07-17T05:41:18.751Z,1006.95
2018-07-17T05:41:54.062Z,1006.94
2018-07-17T05:42:29.812Z,1006.97
2018-07-17T05:43:05.501Z,1006.98
2018-07-17T05:43:40.800Z,1007.01
2018-07-17T05:44:16.027Z,1006.99
2018-07-17T05:44:51.906Z,1007.00
2018-07-17T05:45:27.457Z,1006.98
2018-07-17T05:46:03.010Z,1007.00
2018-07-17T05:46:38.340Z,1007.00
2018-07-17T05:47:13.994Z,1007.01
2018-07-17T05:47:50.045Z,1007.03
2018-07-17T05:48:25.374Z,1007.01
2018-07-17T05:49:02.472Z,1006.99
2018-07-17T05:49:37.913Z,1007.02
2018-07-17T05:50:14.696Z,1007.01
2018-07-17T05:50:49.905Z,1007.02
2018-07-17T05:51:25.536Z,1007.00
2018-07-17T05:52:02.173Z,1007.02
2018-07-17T05:52:37.616Z,1007.04
2018-07-17T05:53:13.420Z,1007.04
2018-07-17T05:53:48.641Z,1007.03
2018-07-17T05:54:24.109Z,1007.02
2018-07-17T05:54:59.325Z,1007.01
2018-07-17T05:55:35.662Z,1007.04
2018-07-17T05:56:11.802Z,1007.02
2018-07-17T05:56:47.158Z,1007.06
2018-07-17T05:57:22.691Z,1007.05
2018-07-17T05:57:58.211Z,1007.05
2018-07-17T05:58:34.738Z,1007.02
2018-07-17T05:59:10.964Z,1007.02
2018-07-17T05:59:46.550Z,1007.04
2018-07-17T06:00:21.987Z,1007.06
2018-07-17T06:01:00.244Z,1007.10
2018-07-17T06:01:35.811Z,1007.12
2018-07-17T06:02:12.783Z,1007.10
2018-07-17T06:02:48.344Z,1007.11
2018-07-17T06:03:24.855Z,1007.12
2018-07-17T06:04:00.671Z,1007.15
2018-07-17T06:04:37.158Z,1007.13
2018-07-17T06:05:12.492Z,1007.15
2018-07-17T06:05:49.435Z,1007.16
2018-07-17T06:06:24.970Z,1007.21
2018-07-17T06:07:00.280Z,1007.21
2018-07-17T06:07:36.525Z,1007.20
2018-07-17T06:08:11.955Z,1007.22
2018-07-17T06:08:48.137Z,1007.27
2018-07-17T06:09:23.938Z,1007.25
2018-07-17T06:10:00.358Z,1007.29
2018-07-17T06:10:36.287Z,1007.28
2018-07-17T06:11:11.906Z,1007.33
2018-07-17T06:11:47.146Z,1007.34
2018-07-17T06:12:22.797Z,1007.31
2018-07-17T06:12:59.107Z,1007.34
2018-07-17T06:13:34.568Z,1007.39
2018-07-17T06:14:10.472Z,1007.41
2018-07-17T06:14:46.002Z,1007.37
2018-07-17T06:15:21.342Z,1007.33
2018-07-17T06:15:57.067Z,1007.38
2018-07-17T06:16:32.593Z,1007.39
2018-07-17T06:17:07.800Z,1007.36
2018-07-17T06:17:43.431Z,1007.39
2018-07-17T06:18:19.195Z,1007.40
2018-07-17T06:18:56.447Z,1007.41
2018-07-17T06:19:31.909Z,1007.43
2018-07-17T06:20:07.697Z,1007.46
2018-07-17T06:20:44.998Z,1007.45
2018-07-17T06:21:20.103Z,1007.47
2018-07-17T06:21:55.494Z,1007.48
2018-07-17T06:22:31.013Z,1007.50
2018-07-17T06:23:06.552Z,1007.50
2018-07-17T06:23:42.022Z,1007.50
2018-07-17T06:24:17.515Z,1007.49
2018-07-17T06:24:53.057Z,1007.54
2018-07-17T06:25:28.403Z,1007.56
2018-07-17T06:26:04.015Z,1007.54
2018-07-17T06:26:39.650Z,1007.55
2018-07-17T06:27:14.943Z,1007.56
2018-07-17T06:27:50.466Z,1007.57
2018-07-17T06:28:25.977Z,1007.57
2018-07-17T06:29:01.675Z,1007.58
2018-07-17T06:29:36.908Z,1007.62
2018-07-17T06:30:12.256Z,1007.60
2018-07-17T06:30:47.678Z,1007.58
2018-07-17T06:31:22.981Z,1007.57
2018-07-17T06:31:59.325Z,1007.58
2018-07-17T06:32:34.649Z,1007.55
2018-07-17T06:33:09.972Z,1007.57
2018-07-17T06:33:46.013Z,1007.53
2018-07-17T06:34:21.333Z,1007.54
2018-07-17T06:34:56.673Z,1007.53
2018-07-17T06:35:32.311Z,1007.54
2018-07-17T06:36:07.710Z,1007.53
2018-07-17T06:36:43.207Z,1007.55
2018-07-17T06:37:18.645Z,1007.50
2018-07-17T06:37:54.083Z,1007.52
2018-07-17T06:38:29.499Z,1007.53
2018-07-17T06:39:05.922Z,1007.50
2018-07-17T06:39:41.383Z,1007.52
2018-07-17T06:40:16.814Z,1007.54
2018-07-17T06:40:54.547Z,1007.52
2018-07-17T06:41:30.227Z,1007.56
2018-07-17T06:42:09.055Z,1007.56
2018-07-17T06:42:44.260Z,1007.53
2018-07-17T06:43:19.565Z,1007.51
2018-07-17T06:43:54.785Z,1007.51
2018-07-17T06:44:30.253Z,1007.53
2018-07-17T06:45:05.742Z,1007.54
2018-07-17T06:45:44.392Z,1007.54
2018-07-17T06:46:19.591Z,1007.52
2018-07-17T06:46:55.016Z,1007.54
2018-07-17T06:47:30.413Z,1007.55
2018-07-17T06:48:05.854Z,1007.53
2018-07-17T06:48:41.593Z,1007.52
2018-07-17T06:49:16.842Z,1007.51
2018-07-17T06:52:31.318Z,1007.47
2018-07-17T06:53:06.520Z,1007.46
2018-07-17T06:53:42.243Z,1007.47
2018-07-17T06:54:17.816Z,1007.53
2018-07-17T06:54:55.535Z,1007.53
2018-07-17T06:55:30.934Z,1007.51
2018-07-17T06:56:06.389Z,1007.53
2018-07-17T06:56:41.710Z,1007.53
2018-07-17T06:57:17.204Z,1007.55
2018-07-17T06:57:52.707Z,1007.57
2018-07-17T06:58:28.185Z,1007.57
2018-07-17T06:59:03.527Z,1007.57
2018-07-17T06:59:39.148Z,1007.60
2018-07-17T07:00:14.690Z,1007.60
2018-07-17T07:00:51.786Z,1007.56
2018-07-17T07:01:28.284Z,1007.55
2018-07-17T07:02:03.700Z,1007.55
2018-07-17T07:02:39.114Z,1007.52
2018-07-17T07:03:14.329Z,1007.49
2018-07-17T07:03:49.569Z,1007.51
2018-07-17T07:04:25.054Z,1007.52
2018-07-17T07:05:00.401Z,1007.51
2018-07-17T07:05:35.811Z,1007.53
2018-07-17T07:06:11.013Z,1007.49
2018-07-17T07:06:47.638Z,1007.48
2018-07-17T07:07:24.116Z,1007.50
2018-07-17T07:07:59.571Z,1007.49
2018-07-17T07:08:35.013Z,1007.51
2018-07-17T07:09:10.444Z,1007.51
2018-07-17T07:09:47.357Z,1007.54
2018-07-17T07:10:22.461Z,1007.57
2018-07-17T07:10:57.796Z,1007.56
2018-07-17T07:11:32.867Z,1007.57
2018-07-17T07:12:08.285Z,1007.57
2018-07-17T07:12:43.637Z,1007.53
2018-07-17T07:13:19.438Z,1007.55
2018-07-17T07:13:55.081Z,1007.57
2018-07-17T07:14:30.626Z,1007.52
2018-07-17T07:15:07.359Z,1007.54